sensor_id;sensor_type;location;lat;lon;timestamp;pressure;altitude;pressure_sealevel;temperature;humidity
2268;BME280;11052;43.338;25.502;2023-02-10T00:00:47;103126.94;;;-7.77;100.00
2268;BME280;11052;43.338;25.502;2023-02-10T00:03:15;103119.78;;;-7.73;100.00
2268;BME280;11052;43.338;25.502;2023-02-10T00:05:42;103121.16;;;-7.76;100.00
2268;BME280;11052;43.338;25.502;2023-02-10T00:08:09;103120.22;;;-7.87;100.00
2268;BME280;11052;43.338;25.502;2023-02-10T00:10:37;103106.50;;;-7.90;100.00
2268;BME280;11052;43.338;25.502;2023-02-10T00:13:04;103105.53;;;-8.01;100.00
2268;BME280;11052;43.338;25.502;2023-02-10T00:15:31;103118.53;;;-7.97;100.00
2268;BME280;11052;43.338;25.502;2023-02-10T00:17:58;103108.38;;;-8.07;100.00
2268;BME280;11052;43.338;25.502;2023-02-10T00:20:27;103105.16;;;-8.14;100.00
2268;BME280;11052;43.338;25.502;2023-02-10T00:22:54;103113.00;;;-8.11;100.00
2268;BME280;11052;43.338;25.502;2023-02-10T00:25:21;103115.50;;;-8.11;100.00
2268;BME280;11052;43.338;25.502;2023-02-10T00:27:48;103111.69;;;-8.16;100.00
2268;BME280;11052;43.338;25.502;2023-02-10T00:30:15;103120.88;;;-8.17;100.00
2268;BME280;11052;43.338;25.502;2023-02-10T00:32:42;103116.25;;;-8.12;100.00
2268;BME280;11052;43.338;25.502;2023-02-10T00:35:09;103100.41;;;-8.11;100.00
2268;BME280;11052;43.338;25.502;2023-02-10T00:37:38;103098.09;;;-8.18;100.00
2268;BME280;11052;43.338;25.502;2023-02-10T00:40:05;103101.41;;;-8.28;100.00
2268;BME280;11052;43.338;25.502;2023-02-10T00:42:32;103108.06;;;-8.29;100.00
2268;BME280;11052;43.338;25.502;2023-02-10T00:44:59;103107.13;;;-8.20;100.00
2268;BME280;11052;43.338;25.502;2023-02-10T00:47:26;103100.19;;;-8.23;100.00
2268;BME280;11052;43.338;25.502;2023-02-10T00:49:54;103108.34;;;-8.26;100.00
2268;BME280;11052;43.338;25.502;2023-02-10T00:52:21;103103.59;;;-8.22;100.00
2268;BME280;11052;43.338;25.502;2023-02-10T00:54:49;103096.47;;;-8.18;100.00
2268;BME280;11052;43.338;25.502;2023-02-10T00:57:17;103091.91;;;-8.22;100.00
2268;BME280;11052;43.338;25.502;2023-02-10T00:59:44;103091.75;;;-8.23;100.00
2268;BME280;11052;43.338;25.502;2023-02-10T01:02:11;103090.59;;;-8.27;100.00
2268;BME280;11052;43.338;25.502;2023-02-10T01:04:38;103089.72;;;-8.28;100.00
2268;BME280;11052;43.338;25.502;2023-02-10T01:07:05;103081.09;;;-8.40;100.00
2268;BME280;11052;43.338;25.502;2023-02-10T01:09:32;103092.19;;;-8.38;100.00
2268;BME280;11052;43.338;25.502;2023-02-10T01:12:01;103097.81;;;-8.40;100.00
2268;BME280;11052;43.338;25.502;2023-02-10T01:14:28;103080.34;;;-8.39;100.00
2268;BME280;11052;43.338;25.502;2023-02-10T01:16:56;103088.97;;;-8.45;100.00
2268;BME280;11052;43.338;25.502;2023-02-10T01:19:23;103084.53;;;-8.48;100.00
2268;BME280;11052;43.338;25.502;2023-02-10T01:21:50;103085.09;;;-8.42;100.00
2268;BME280;11052;43.338;25.502;2023-02-10T01:24:17;103086.88;;;-8.41;100.00
2268;BME280;11052;43.338;25.502;2023-02-10T01:26:44;103079.78;;;-8.45;100.00
2268;BME280;11052;43.338;25.502;2023-02-10T01:29:12;103079.97;;;-8.52;100.00
2268;BME280;11052;43.338;25.502;2023-02-10T01:31:40;103080.44;;;-8.56;100.00
2268;BME280;11052;43.338;25.502;2023-02-10T01:34:07;103082.06;;;-8.56;100.00
2268;BME280;11052;43.338;25.502;2023-02-10T01:36:34;103082.81;;;-8.57;100.00
2268;BME280;11052;43.338;25.502;2023-02-10T01:39:01;103085.47;;;-8.56;100.00
2268;BME280;11052;43.338;25.502;2023-02-10T01:41:28;103080.72;;;-8.53;100.00
2268;BME280;11052;43.338;25.502;2023-02-10T01:43:58;103080.84;;;-8.51;100.00
2268;BME280;11052;43.338;25.502;2023-02-10T01:46:27;103077.78;;;-8.57;100.00
2268;BME280;11052;43.338;25.502;2023-02-10T01:48:56;103073.19;;;-8.53;100.00
2268;BME280;11052;43.338;25.502;2023-02-10T01:51:30;103066.28;;;-8.64;100.00
2268;BME280;11052;43.338;25.502;2023-02-10T01:53:59;103062.00;;;-8.65;100.00
2268;BME280;11052;43.338;25.502;2023-02-10T01:56:26;103071.44;;;-8.63;100.00
2268;BME280;11052;43.338;25.502;2023-02-10T01:58:53;103064.88;;;-8.71;100.00
2268;BME280;11052;43.338;25.502;2023-02-10T02:01:20;103060.59;;;-8.72;100.00
2268;BME280;11052;43.338;25.502;2023-02-10T02:03:49;103072.56;;;-8.69;100.00
2268;BME280;11052;43.338;25.502;2023-02-10T02:06:16;103073.44;;;-8.69;100.00
2268;BME280;11052;43.338;25.502;2023-02-10T02:08:43;103070.78;;;-8.70;100.00
2268;BME280;11052;43.338;25.502;2023-02-10T02:11:17;103071.16;;;-8.66;100.00
2268;BME280;11052;43.338;25.502;2023-02-10T02:14:04;103065.63;;;-8.72;100.00
2268;BME280;11052;43.338;25.502;2023-02-10T02:16:49;103061.94;;;-8.75;100.00
2268;BME280;11052;43.338;25.502;2023-02-10T02:23:03;103056.38;;;-8.90;100.00
2268;BME280;11052;43.338;25.502;2023-02-10T02:25:47;103068.97;;;-8.99;100.00
2268;BME280;11052;43.338;25.502;2023-02-10T02:28:29;103073.25;;;-8.98;100.00
2268;BME280;11052;43.338;25.502;2023-02-10T02:31:37;103068.22;;;-8.98;100.00
2268;BME280;11052;43.338;25.502;2023-02-10T02:34:11;103055.34;;;-8.92;100.00
2268;BME280;11052;43.338;25.502;2023-02-10T02:36:44;103057.13;;;-8.91;100.00
2268;BME280;11052;43.338;25.502;2023-02-10T02:39:14;103054.34;;;-9.03;100.00
2268;BME280;11052;43.338;25.502;2023-02-10T02:41:41;103049.06;;;-9.06;100.00
2268;BME280;11052;43.338;25.502;2023-02-10T02:44:08;103045.28;;;-9.28;100.00
2268;BME280;11052;43.338;25.502;2023-02-10T02:46:47;103048.84;;;-9.43;100.00
2268;BME280;11052;43.338;25.502;2023-02-10T02:49:26;103041.44;;;-9.33;100.00
2268;BME280;11052;43.338;25.502;2023-02-10T02:52:01;103040.53;;;-9.25;100.00
2268;BME280;11052;43.338;25.502;2023-02-10T02:54:36;103043.34;;;-9.22;100.00
2268;BME280;11052;43.338;25.502;2023-02-10T02:57:12;103044.94;;;-9.14;100.00
2268;BME280;11052;43.338;25.502;2023-02-10T02:59:47;103050.56;;;-9.16;100.00
2268;BME280;11052;43.338;25.502;2023-02-10T03:02:19;103044.19;;;-9.13;100.00
2268;BME280;11052;43.338;25.502;2023-02-10T03:04:47;103053.78;;;-9.09;100.00
2268;BME280;11052;43.338;25.502;2023-02-10T03:07:14;103041.41;;;-9.16;100.00
2268;BME280;11052;43.338;25.502;2023-02-10T03:09:42;103032.56;;;-9.21;100.00
2268;BME280;11052;43.338;25.502;2023-02-10T03:12:09;103033.16;;;-9.23;100.00
2268;BME280;11052;43.338;25.502;2023-02-10T03:14:37;103036.25;;;-9.26;100.00
2268;BME280;11052;43.338;25.502;2023-02-10T03:17:05;103031.25;;;-9.26;100.00
2268;BME280;11052;43.338;25.502;2023-02-10T03:19:33;103023.25;;;-9.22;100.00
2268;BME280;11052;43.338;25.502;2023-02-10T03:22:01;103016.47;;;-9.23;100.00
2268;BME280;11052;43.338;25.502;2023-02-10T03:24:28;103025.03;;;-9.30;100.00
2268;BME280;11052;43.338;25.502;2023-02-10T03:26:55;103017.66;;;-9.28;100.00
2268;BME280;11052;43.338;25.502;2023-02-10T03:29:22;103010.13;;;-9.28;100.00
2268;BME280;11052;43.338;25.502;2023-02-10T03:31:49;103010.72;;;-9.31;100.00
2268;BME280;11052;43.338;25.502;2023-02-10T03:34:17;103005.69;;;-9.31;100.00
2268;BME280;11052;43.338;25.502;2023-02-10T03:36:45;102993.00;;;-9.32;100.00
2268;BME280;11052;43.338;25.502;2023-02-10T03:39:12;103008.94;;;-9.32;100.00
2268;BME280;11052;43.338;25.502;2023-02-10T03:41:40;103000.69;;;-9.31;100.00
2268;BME280;11052;43.338;25.502;2023-02-10T03:44:07;102999.38;;;-9.36;100.00
2268;BME280;11052;43.338;25.502;2023-02-10T03:46:34;102996.13;;;-9.43;100.00
2268;BME280;11052;43.338;25.502;2023-02-10T03:49:02;102997.75;;;-9.44;100.00
2268;BME280;11052;43.338;25.502;2023-02-10T03:51:29;102997.75;;;-9.44;100.00
2268;BME280;11052;43.338;25.502;2023-02-10T03:53:58;102988.31;;;-9.46;100.00
2268;BME280;11052;43.338;25.502;2023-02-10T03:56:25;102990.38;;;-9.42;100.00
2268;BME280;11052;43.338;25.502;2023-02-10T03:58:52;102997.16;;;-9.41;100.00
2268;BME280;11052;43.338;25.502;2023-02-10T04:01:19;102997.19;;;-9.50;100.00
2268;BME280;11052;43.338;25.502;2023-02-10T04:03:46;102997.94;;;-9.51;100.00
2268;BME280;11052;43.338;25.502;2023-02-10T04:06:13;102994.69;;;-9.50;100.00
2268;BME280;11052;43.338;25.502;2023-02-10T04:08:40;102993.66;;;-9.52;100.00
2268;BME280;11052;43.338;25.502;2023-02-10T04:11:09;102995.47;;;-9.60;100.00
2268;BME280;11052;43.338;25.502;2023-02-10T04:13:37;102986.91;;;-9.62;100.00
2268;BME280;11052;43.338;25.502;2023-02-10T04:16:07;102991.94;;;-9.62;100.00
2268;BME280;11052;43.338;25.502;2023-02-10T04:18:35;102992.06;;;-9.60;100.00
2268;BME280;11052;43.338;25.502;2023-02-10T04:21:04;102986.34;;;-9.68;100.00
2268;BME280;11052;43.338;25.502;2023-02-10T04:23:32;102982.66;;;-9.71;100.00
2268;BME280;11052;43.338;25.502;2023-02-10T04:25:59;102985.75;;;-9.74;100.00
2268;BME280;11052;43.338;25.502;2023-02-10T04:28:28;102986.19;;;-9.69;100.00
2268;BME280;11052;43.338;25.502;2023-02-10T04:30:57;102994.59;;;-9.69;100.00
2268;BME280;11052;43.338;25.502;2023-02-10T04:33:25;102988.41;;;-9.64;100.00
2268;BME280;11052;43.338;25.502;2023-02-10T04:35:53;102982.50;;;-9.64;100.00
2268;BME280;11052;43.338;25.502;2023-02-10T04:38:21;102983.09;;;-9.75;100.00
2268;BME280;11052;43.338;25.502;2023-02-10T04:40:49;102979.25;;;-9.72;100.00
2268;BME280;11052;43.338;25.502;2023-02-10T04:43:16;102984.44;;;-9.79;100.00
2268;BME280;11052;43.338;25.502;2023-02-10T04:45:45;102992.72;;;-9.80;100.00
2268;BME280;11052;43.338;25.502;2023-02-10T04:48:13;102992.72;;;-9.80;100.00
2268;BME280;11052;43.338;25.502;2023-02-10T04:50:40;102987.97;;;-9.77;100.00
2268;BME280;11052;43.338;25.502;2023-02-10T04:53:08;102986.94;;;-9.79;100.00
2268;BME280;11052;43.338;25.502;2023-02-10T04:55:35;102995.66;;;-9.84;100.00
2268;BME280;11052;43.338;25.502;2023-02-10T04:58:02;102997.72;;;-9.80;100.00
2268;BME280;11052;43.338;25.502;2023-02-10T05:00:30;102997.13;;;-9.86;100.00
2268;BME280;11052;43.338;25.502;2023-02-10T05:02:58;102997.28;;;-9.93;100.00
2268;BME280;11052;43.338;25.502;2023-02-10T05:05:25;102994.50;;;-9.87;100.00
2268;BME280;11052;43.338;25.502;2023-02-10T05:07:53;102993.00;;;-9.85;100.00
2268;BME280;11052;43.338;25.502;2023-02-10T05:10:20;102995.97;;;-9.81;100.00
2268;BME280;11052;43.338;25.502;2023-02-10T05:12:47;102995.97;;;-9.81;100.00
2268;BME280;11052;43.338;25.502;2023-02-10T05:15:14;103002.44;;;-9.83;100.00
2268;BME280;11052;43.338;25.502;2023-02-10T05:17:41;103002.44;;;-9.83;100.00
2268;BME280;11052;43.338;25.502;2023-02-10T05:20:11;103003.19;;;-9.93;100.00
2268;BME280;11052;43.338;25.502;2023-02-10T05:22:38;102998.31;;;-9.82;100.00
2268;BME280;11052;43.338;25.502;2023-02-10T05:25:07;103002.00;;;-9.79;100.00
2268;BME280;11052;43.338;25.502;2023-02-10T05:27:34;102994.34;;;-9.80;100.00
2268;BME280;11052;43.338;25.502;2023-02-10T05:30:02;103010.84;;;-9.74;100.00
2268;BME280;11052;43.338;25.502;2023-02-10T05:32:30;103009.09;;;-9.83;100.00
2268;BME280;11052;43.338;25.502;2023-02-10T05:34:57;103017.50;;;-9.83;100.00
2268;BME280;11052;43.338;25.502;2023-02-10T05:37:26;103016.03;;;-9.81;100.00
2268;BME280;11052;43.338;25.502;2023-02-10T05:39:53;103017.03;;;-9.70;100.00
2268;BME280;11052;43.338;25.502;2023-02-10T05:42:20;103012.59;;;-9.55;100.00
2268;BME280;11052;43.338;25.502;2023-02-10T05:44:47;103004.81;;;-9.31;100.00
2268;BME280;11052;43.338;25.502;2023-02-10T05:47:14;103007.38;;;-9.04;100.00
2268;BME280;11052;43.338;25.502;2023-02-10T05:49:41;103014.97;;;-8.85;100.00
2268;BME280;11052;43.338;25.502;2023-02-10T05:52:08;103012.38;;;-8.68;100.00
2268;BME280;11052;43.338;25.502;2023-02-10T05:54:37;103006.59;;;-8.48;100.00
2268;BME280;11052;43.338;25.502;2023-02-10T05:57:06;103010.13;;;-8.46;100.00
2268;BME280;11052;43.338;25.502;2023-02-10T05:59:33;103010.66;;;-8.21;100.00
2268;BME280;11052;43.338;25.502;2023-02-10T06:02:00;103015.28;;;-7.78;100.00
2268;BME280;11052;43.338;25.502;2023-02-10T06:04:27;103015.16;;;-7.50;100.00
2268;BME280;11052;43.338;25.502;2023-02-10T06:06:54;103026.19;;;-7.30;100.00
2268;BME280;11052;43.338;25.502;2023-02-10T06:09:22;103026.53;;;-7.06;100.00
2268;BME280;11052;43.338;25.502;2023-02-10T06:11:51;103029.69;;;-6.78;100.00
2268;BME280;11052;43.338;25.502;2023-02-10T06:14:18;103030.34;;;-6.40;100.00
2268;BME280;11052;43.338;25.502;2023-02-10T06:16:45;103029.91;;;-6.04;100.00
2268;BME280;11052;43.338;25.502;2023-02-10T06:19:12;103035.91;;;-5.82;100.00
2268;BME280;11052;43.338;25.502;2023-02-10T06:21:39;103033.56;;;-5.58;100.00
2268;BME280;11052;43.338;25.502;2023-02-10T06:24:08;103045.13;;;-5.40;100.00
2268;BME280;11052;43.338;25.502;2023-02-10T06:26:35;103044.88;;;-5.43;100.00
2268;BME280;11052;43.338;25.502;2023-02-10T06:29:03;103045.97;;;-5.30;100.00
2268;BME280;11052;43.338;25.502;2023-02-10T06:31:30;103049.84;;;-5.01;100.00
2268;BME280;11052;43.338;25.502;2023-02-10T06:33:57;103048.78;;;-4.93;100.00
2268;BME280;11052;43.338;25.502;2023-02-10T06:36:25;103057.13;;;-4.72;100.00
2268;BME280;11052;43.338;25.502;2023-02-10T06:38:52;103061.66;;;-4.35;100.00
2268;BME280;11052;43.338;25.502;2023-02-10T06:41:19;103060.59;;;-4.03;100.00
2268;BME280;11052;43.338;25.502;2023-02-10T06:43:46;103061.28;;;-3.82;100.00
2268;BME280;11052;43.338;25.502;2023-02-10T06:46:15;103060.31;;;-3.73;100.00
2268;BME280;11052;43.338;25.502;2023-02-10T06:48:42;103057.09;;;-3.58;100.00
2268;BME280;11052;43.338;25.502;2023-02-10T06:51:09;103057.50;;;-3.41;100.00
2268;BME280;11052;43.338;25.502;2023-02-10T06:53:36;103061.19;;;-3.72;100.00
2268;BME280;11052;43.338;25.502;2023-02-10T06:56:03;103066.38;;;-3.71;100.00
2268;BME280;11052;43.338;25.502;2023-02-10T06:58:30;103064.38;;;-3.51;100.00
2268;BME280;11052;43.338;25.502;2023-02-10T07:00:57;103063.00;;;-3.35;100.00
2268;BME280;11052;43.338;25.502;2023-02-10T07:03:28;103058.22;;;-3.07;100.00
2268;BME280;11052;43.338;25.502;2023-02-10T07:05:55;103053.34;;;-3.64;100.00
2268;BME280;11052;43.338;25.502;2023-02-10T07:08:23;103055.00;;;-3.99;100.00
2268;BME280;11052;43.338;25.502;2023-02-10T07:10:50;103058.03;;;-4.15;100.00
2268;BME280;11052;43.338;25.502;2023-02-10T07:13:17;103052.72;;;-4.30;100.00
2268;BME280;11052;43.338;25.502;2023-02-10T07:15:44;103053.84;;;-4.26;100.00
2268;BME280;11052;43.338;25.502;2023-02-10T07:18:11;103052.56;;;-3.98;100.00
2268;BME280;11052;43.338;25.502;2023-02-10T07:20:40;103055.88;;;-3.75;100.00
2268;BME280;11052;43.338;25.502;2023-02-10T07:23:07;103049.66;;;-3.32;100.00
2268;BME280;11052;43.338;25.502;2023-02-10T07:25:34;103052.22;;;-2.95;100.00
2268;BME280;11052;43.338;25.502;2023-02-10T07:28:01;103047.16;;;-2.95;100.00
2268;BME280;11052;43.338;25.502;2023-02-10T07:30:28;103045.16;;;-2.88;100.00
2268;BME280;11052;43.338;25.502;2023-02-10T07:32:55;103048.84;;;-3.08;100.00
2268;BME280;11052;43.338;25.502;2023-02-10T07:35:23;103045.03;;;-3.26;100.00
2268;BME280;11052;43.338;25.502;2023-02-10T07:37:52;103042.81;;;-3.21;100.00
2268;BME280;11052;43.338;25.502;2023-02-10T07:40:19;103031.88;;;-2.84;100.00
2268;BME280;11052;43.338;25.502;2023-02-10T07:42:47;103046.25;;;-3.44;100.00
2268;BME280;11052;43.338;25.502;2023-02-10T07:45:14;103042.78;;;-3.81;100.00
2268;BME280;11052;43.338;25.502;2023-02-10T07:47:41;103044.66;;;-3.79;100.00
2268;BME280;11052;43.338;25.502;2023-02-10T07:50:08;103036.38;;;-3.53;100.00
2268;BME280;11052;43.338;25.502;2023-02-10T07:52:35;103036.16;;;-3.68;100.00
2268;BME280;11052;43.338;25.502;2023-02-10T07:55:04;103025.50;;;-3.27;100.00
2268;BME280;11052;43.338;25.502;2023-02-10T07:57:32;103033.97;;;-3.15;100.00
2268;BME280;11052;43.338;25.502;2023-02-10T07:59:59;103032.13;;;-2.92;100.00
2268;BME280;11052;43.338;25.502;2023-02-10T08:02:26;103032.75;;;-3.08;100.00
2268;BME280;11052;43.338;25.502;2023-02-10T08:04:53;103033.25;;;-2.64;100.00
2268;BME280;11052;43.338;25.502;2023-02-10T08:07:21;103027.34;;;-2.38;100.00
2268;BME280;11052;43.338;25.502;2023-02-10T08:09:49;103030.47;;;-2.92;100.00
2268;BME280;11052;43.338;25.502;2023-02-10T08:12:17;103024.75;;;-2.51;100.00
2268;BME280;11052;43.338;25.502;2023-02-10T08:14:45;103034.81;;;-2.15;100.00
2268;BME280;11052;43.338;25.502;2023-02-10T08:17:13;103030.25;;;-1.94;100.00
2268;BME280;11052;43.338;25.502;2023-02-10T08:19:40;103030.34;;;-2.06;100.00
2268;BME280;11052;43.338;25.502;2023-02-10T08:22:07;103030.44;;;-2.42;100.00
2268;BME280;11052;43.338;25.502;2023-02-10T08:24:34;103031.59;;;-2.12;100.00
2268;BME280;11052;43.338;25.502;2023-02-10T08:27:03;103021.94;;;-1.91;100.00
2268;BME280;11052;43.338;25.502;2023-02-10T08:29:31;103031.31;;;-2.04;100.00
2268;BME280;11052;43.338;25.502;2023-02-10T08:31:58;103019.59;;;-2.02;100.00
2268;BME280;11052;43.338;25.502;2023-02-10T08:34:26;103028.47;;;-2.08;100.00
2268;BME280;11052;43.338;25.502;2023-02-10T08:36:53;103028.69;;;-1.79;100.00
2268;BME280;11052;43.338;25.502;2023-02-10T08:39:20;103034.31;;;-1.56;100.00
2268;BME280;11052;43.338;25.502;2023-02-10T08:41:48;103035.78;;;-1.34;100.00
2268;BME280;11052;43.338;25.502;2023-02-10T08:44:15;103037.97;;;-1.12;100.00
2268;BME280;11052;43.338;25.502;2023-02-10T08:46:44;103032.28;;;-0.80;100.00
2268;BME280;11052;43.338;25.502;2023-02-10T08:49:11;103046.84;;;-0.49;100.00
2268;BME280;11052;43.338;25.502;2023-02-10T08:51:38;103046.84;;;-0.35;100.00
2268;BME280;11052;43.338;25.502;2023-02-10T08:54:05;103041.41;;;-0.26;100.00
2268;BME280;11052;43.338;25.502;2023-02-10T08:56:33;103036.56;;;-0.51;100.00
2268;BME280;11052;43.338;25.502;2023-02-10T08:59:00;103034.84;;;-0.22;100.00
2268;BME280;11052;43.338;25.502;2023-02-10T09:01:27;103034.41;;;-0.01;100.00
2268;BME280;11052;43.338;25.502;2023-02-10T09:03:56;103033.03;;;0.06;100.00
2268;BME280;11052;43.338;25.502;2023-02-10T09:06:26;103033.72;;;0.18;100.00
2268;BME280;11052;43.338;25.502;2023-02-10T09:08:54;103029.06;;;0.11;100.00
2268;BME280;11052;43.338;25.502;2023-02-10T09:11:22;103031.91;;;0.01;100.00
2268;BME280;11052;43.338;25.502;2023-02-10T09:13:50;103022.63;;;-0.13;100.00
2268;BME280;11052;43.338;25.502;2023-02-10T09:16:17;103027.16;;;0.07;100.00
2268;BME280;11052;43.338;25.502;2023-02-10T09:18:44;103022.34;;;-0.03;100.00
2268;BME280;11052;43.338;25.502;2023-02-10T09:21:13;103018.19;;;-0.60;100.00
2268;BME280;11052;43.338;25.502;2023-02-10T09:23:40;103019.16;;;-0.43;100.00
2268;BME280;11052;43.338;25.502;2023-02-10T09:26:07;103012.75;;;-0.51;100.00
2268;BME280;11052;43.338;25.502;2023-02-10T09:28:35;103010.66;;;-0.44;100.00
2268;BME280;11052;43.338;25.502;2023-02-10T09:31:04;103009.97;;;-0.26;100.00
2268;BME280;11052;43.338;25.502;2023-02-10T09:33:31;102998.78;;;-0.43;100.00
2268;BME280;11052;43.338;25.502;2023-02-10T09:35:59;102997.91;;;-0.44;100.00
2268;BME280;11052;43.338;25.502;2023-02-10T09:38:29;102994.31;;;-0.32;100.00
2268;BME280;11052;43.338;25.502;2023-02-10T09:41:04;102998.09;;;-0.41;100.00
2268;BME280;11052;43.338;25.502;2023-02-10T09:43:54;102995.19;;;-0.47;100.00
2268;BME280;11052;43.338;25.502;2023-02-10T09:46:30;102989.88;;;-0.64;100.00
2268;BME280;11052;43.338;25.502;2023-02-10T09:49:11;102985.69;;;-0.35;100.00
2268;BME280;11052;43.338;25.502;2023-02-10T09:51:49;102986.47;;;-0.06;100.00
2268;BME280;11052;43.338;25.502;2023-02-10T09:54:22;102987.81;;;-0.13;100.00
2268;BME280;11052;43.338;25.502;2023-02-10T09:56:49;102976.78;;;0.03;100.00
2268;BME280;11052;43.338;25.502;2023-02-10T09:59:19;102970.72;;;0.32;100.00
2268;BME280;11052;43.338;25.502;2023-02-10T10:01:51;102969.00;;;0.16;100.00
2268;BME280;11052;43.338;25.502;2023-02-10T10:04:22;102967.06;;;-0.04;100.00
2268;BME280;11052;43.338;25.502;2023-02-10T10:06:50;102963.31;;;0.06;100.00
2268;BME280;11052;43.338;25.502;2023-02-10T10:09:29;102958.63;;;-0.03;100.00
2268;BME280;11052;43.338;25.502;2023-02-10T10:11:58;102960.94;;;0.09;100.00
2268;BME280;11052;43.338;25.502;2023-02-10T10:14:27;102950.16;;;-0.02;100.00
2268;BME280;11052;43.338;25.502;2023-02-10T10:20:05;102949.78;;;0.07;100.00
2268;BME280;11052;43.338;25.502;2023-02-10T10:22:45;102933.94;;;0.12;100.00
2268;BME280;11052;43.338;25.502;2023-02-10T10:25:28;102935.66;;;0.28;100.00
2268;BME280;11052;43.338;25.502;2023-02-10T10:28:06;102937.16;;;0.24;100.00
2268;BME280;11052;43.338;25.502;2023-02-10T10:30:43;102935.59;;;0.43;100.00
2268;BME280;11052;43.338;25.502;2023-02-10T10:33:20;102927.56;;;0.68;100.00
2268;BME280;11052;43.338;25.502;2023-02-10T10:35:49;102924.63;;;0.76;100.00
2268;BME280;11052;43.338;25.502;2023-02-10T10:38:20;102917.28;;;0.66;100.00
2268;BME280;11052;43.338;25.502;2023-02-10T10:40:52;102915.38;;;0.62;100.00
2268;BME280;11052;43.338;25.502;2023-02-10T10:43:23;102918.47;;;0.73;100.00
2268;BME280;11052;43.338;25.502;2023-02-10T10:45:55;102913.44;;;0.58;100.00
2268;BME280;11052;43.338;25.502;2023-02-10T10:48:26;102909.13;;;0.57;100.00
2268;BME280;11052;43.338;25.502;2023-02-10T10:50:59;102910.66;;;0.53;100.00
2268;BME280;11052;43.338;25.502;2023-02-10T10:53:35;102903.69;;;0.35;100.00
2268;BME280;11052;43.338;25.502;2023-02-10T10:56:08;102909.47;;;0.63;100.00
2268;BME280;11052;43.338;25.502;2023-02-10T10:58:40;102910.66;;;0.86;100.00
2268;BME280;11052;43.338;25.502;2023-02-10T11:01:11;102897.50;;;1.12;100.00
2268;BME280;11052;43.338;25.502;2023-02-10T11:03:39;102901.91;;;1.15;100.00
2268;BME280;11052;43.338;25.502;2023-02-10T11:06:08;102895.09;;;1.15;100.00
2268;BME280;11052;43.338;25.502;2023-02-10T11:08:39;102891.53;;;1.12;100.00
2268;BME280;11052;43.338;25.502;2023-02-10T11:11:11;102883.59;;;1.23;100.00
2268;BME280;11052;43.338;25.502;2023-02-10T11:13:47;102882.25;;;1.14;100.00
2268;BME280;11052;43.338;25.502;2023-02-10T11:16:15;102873.59;;;0.94;100.00
2268;BME280;11052;43.338;25.502;2023-02-10T11:18:52;102871.97;;;0.78;100.00
2268;BME280;11052;43.338;25.502;2023-02-10T11:21:20;102862.44;;;0.92;100.00
2268;BME280;11052;43.338;25.502;2023-02-10T11:23:48;102862.97;;;1.03;100.00
2268;BME280;11052;43.338;25.502;2023-02-10T11:26:19;102863.66;;;1.16;100.00
2268;BME280;11052;43.338;25.502;2023-02-10T11:28:47;102860.00;;;1.11;100.00
2268;BME280;11052;43.338;25.502;2023-02-10T11:31:30;102863.47;;;1.47;100.00
2268;BME280;11052;43.338;25.502;2023-02-10T11:34:01;102850.66;;;1.12;100.00
2268;BME280;11052;43.338;25.502;2023-02-10T11:36:33;102855.22;;;1.35;100.00
2268;BME280;11052;43.338;25.502;2023-02-10T11:39:04;102853.56;;;1.53;100.00
2268;BME280;11052;43.338;25.502;2023-02-10T11:41:33;102849.91;;;1.48;100.00
2268;BME280;11052;43.338;25.502;2023-02-10T11:44:01;102848.56;;;1.39;100.00
2268;BME280;11052;43.338;25.502;2023-02-10T11:46:30;102836.97;;;1.27;100.00
2268;BME280;11052;43.338;25.502;2023-02-10T11:49:00;102830.75;;;1.40;100.00
2268;BME280;11052;43.338;25.502;2023-02-10T11:51:28;102823.91;;;1.39;100.00
2268;BME280;11052;43.338;25.502;2023-02-10T11:53:56;102826.16;;;1.51;100.00
2268;BME280;11052;43.338;25.502;2023-02-10T11:56:29;102820.97;;;1.49;100.00
2268;BME280;11052;43.338;25.502;2023-02-10T11:59:27;102819.38;;;1.51;100.00
2268;BME280;11052;43.338;25.502;2023-02-10T12:01:58;102819.66;;;1.40;100.00
2268;BME280;11052;43.338;25.502;2023-02-10T12:04:43;102815.88;;;1.31;100.00
2268;BME280;11052;43.338;25.502;2023-02-10T12:07:20;102806.75;;;1.54;100.00
2268;BME280;11052;43.338;25.502;2023-02-10T12:09:55;102801.91;;;1.60;100.00
2268;BME280;11052;43.338;25.502;2023-02-10T12:12:32;102803.94;;;1.68;100.00
2268;BME280;11052;43.338;25.502;2023-02-10T12:15:11;102794.47;;;1.65;100.00
2268;BME280;11052;43.338;25.502;2023-02-10T12:17:48;102795.69;;;1.73;100.00
2268;BME280;11052;43.338;25.502;2023-02-10T12:20:29;102789.72;;;1.73;100.00
2268;BME280;11052;43.338;25.502;2023-02-10T12:23:16;102785.72;;;1.79;100.00
2268;BME280;11052;43.338;25.502;2023-02-10T12:25:53;102788.75;;;1.71;100.00
2268;BME280;11052;43.338;25.502;2023-02-10T12:28:31;102793.09;;;1.54;100.00
2268;BME280;11052;43.338;25.502;2023-02-10T12:31:10;102777.91;;;1.57;100.00
2268;BME280;11052;43.338;25.502;2023-02-10T12:33:48;102780.44;;;1.57;100.00
2268;BME280;11052;43.338;25.502;2023-02-10T12:36:25;102782.66;;;1.49;100.00
2268;BME280;11052;43.338;25.502;2023-02-10T12:39:05;102776.03;;;1.72;100.00
2268;BME280;11052;43.338;25.502;2023-02-10T12:41:45;102777.97;;;1.78;100.00
2268;BME280;11052;43.338;25.502;2023-02-10T12:44:25;102772.34;;;1.66;100.00
2268;BME280;11052;43.338;25.502;2023-02-10T12:47:05;102765.25;;;1.60;100.00
2268;BME280;11052;43.338;25.502;2023-02-10T12:49:45;102772.34;;;1.85;100.00
2268;BME280;11052;43.338;25.502;2023-02-10T12:52:19;102766.28;;;1.83;100.00
2268;BME280;11052;43.338;25.502;2023-02-10T12:54:52;102767.00;;;1.80;100.00
2268;BME280;11052;43.338;25.502;2023-02-10T12:57:24;102763.06;;;1.68;100.00
2268;BME280;11052;43.338;25.502;2023-02-10T12:59:58;102766.63;;;1.71;100.00
2268;BME280;11052;43.338;25.502;2023-02-10T13:02:32;102762.38;;;1.72;100.00